sensor_id;sensor_type;location;lat;lon;timestamp;temperature;humidity
23550;DHT22;11953;49.010;8.608;2023-05-09T00:00:28;15.80;99.90
23550;DHT22;11953;49.010;8.608;2023-05-09T00:03:15;15.90;99.90
23550;DHT22;11953;49.010;8.608;2023-05-09T00:06:02;15.80;99.90
23550;DHT22;11953;49.010;8.608;2023-05-09T00:08:48;15.90;99.90
23550;DHT22;11953;49.010;8.608;2023-05-09T00:11:34;15.80;99.90
23550;DHT22;11953;49.010;8.608;2023-05-09T00:14:23;15.90;99.90
23550;DHT22;11953;49.010;8.608;2023-05-09T00:17:10;15.90;99.90
23550;DHT22;11953;49.010;8.608;2023-05-09T00:20:00;15.80;99.90
23550;DHT22;11953;49.010;8.608;2023-05-09T00:22:52;15.80;99.90
23550;DHT22;11953;49.010;8.608;2023-05-09T00:25:39;15.70;99.90
23550;DHT22;11953;49.010;8.608;2023-05-09T00:28:26;15.70;99.90
23550;DHT22;11953;49.010;8.608;2023-05-09T00:31:14;15.60;99.90
23550;DHT22;11953;49.010;8.608;2023-05-09T00:34:01;15.60;99.90
23550;DHT22;11953;49.010;8.608;2023-05-09T00:36:48;15.60;99.90
23550;DHT22;11953;49.010;8.608;2023-05-09T00:39:35;15.60;99.90
23550;DHT22;11953;49.010;8.608;2023-05-09T00:42:22;15.50;99.90
23550;DHT22;11953;49.010;8.608;2023-05-09T00:45:09;15.50;99.90
23550;DHT22;11953;49.010;8.608;2023-05-09T00:47:58;15.50;99.90
23550;DHT22;11953;49.010;8.608;2023-05-09T00:50:44;15.50;99.90
23550;DHT22;11953;49.010;8.608;2023-05-09T00:53:32;15.50;99.90
23550;DHT22;11953;49.010;8.608;2023-05-09T00:56:19;15.50;99.90
23550;DHT22;11953;49.010;8.608;2023-05-09T00:59:06;15.50;99.90
23550;DHT22;11953;49.010;8.608;2023-05-09T01:01:53;15.40;99.90
23550;DHT22;11953;49.010;8.608;2023-05-09T01:04:42;15.50;99.90
23550;DHT22;11953;49.010;8.608;2023-05-09T01:07:32;15.40;99.90
23550;DHT22;11953;49.010;8.608;2023-05-09T01:10:26;15.40;99.90
23550;DHT22;11953;49.010;8.608;2023-05-09T01:13:22;15.30;99.90
23550;DHT22;11953;49.010;8.608;2023-05-09T01:16:14;15.20;99.90
23550;DHT22;11953;49.010;8.608;2023-05-09T01:19:15;15.20;99.90
23550;DHT22;11953;49.010;8.608;2023-05-09T01:22:10;15.00;99.90
23550;DHT22;11953;49.010;8.608;2023-05-09T01:25:35;14.90;99.90
23550;DHT22;11953;49.010;8.608;2023-05-09T01:28:34;14.80;99.90
23550;DHT22;11953;49.010;8.608;2023-05-09T01:31:23;14.80;99.90
23550;DHT22;11953;49.010;8.608;2023-05-09T01:34:11;14.70;99.90
23550;DHT22;11953;49.010;8.608;2023-05-09T01:37:00;14.80;99.90
23550;DHT22;11953;49.010;8.608;2023-05-09T01:39:52;14.90;99.90
23550;DHT22;11953;49.010;8.608;2023-05-09T01:42:43;14.90;99.90
23550;DHT22;11953;49.010;8.608;2023-05-09T01:45:32;14.90;99.90
23550;DHT22;11953;49.010;8.608;2023-05-09T01:48:21;15.10;99.90
23550;DHT22;11953;49.010;8.608;2023-05-09T01:51:12;15.20;99.90
23550;DHT22;11953;49.010;8.608;2023-05-09T01:54:00;15.30;99.90
23550;DHT22;11953;49.010;8.608;2023-05-09T01:56:48;15.10;99.90
23550;DHT22;11953;49.010;8.608;2023-05-09T01:59:38;15.10;99.90
23550;DHT22;11953;49.010;8.608;2023-05-09T02:02:26;15.00;99.90
23550;DHT22;11953;49.010;8.608;2023-05-09T02:05:15;15.00;99.90
23550;DHT22;11953;49.010;8.608;2023-05-09T02:08:03;15.00;99.90
23550;DHT22;11953;49.010;8.608;2023-05-09T02:10:51;14.90;99.90
23550;DHT22;11953;49.010;8.608;2023-05-09T02:13:38;14.90;99.90
23550;DHT22;11953;49.010;8.608;2023-05-09T02:16:26;14.80;99.90
23550;DHT22;11953;49.010;8.608;2023-05-09T02:19:13;14.80;99.90
23550;DHT22;11953;49.010;8.608;2023-05-09T02:22:01;14.80;99.90
23550;DHT22;11953;49.010;8.608;2023-05-09T02:24:49;14.70;99.90
23550;DHT22;11953;49.010;8.608;2023-05-09T02:27:37;14.80;99.90
23550;DHT22;11953;49.010;8.608;2023-05-09T02:30:25;14.70;99.90
23550;DHT22;11953;49.010;8.608;2023-05-09T02:33:12;14.90;99.90
23550;DHT22;11953;49.010;8.608;2023-05-09T02:36:00;15.00;99.90
23550;DHT22;11953;49.010;8.608;2023-05-09T02:38:48;15.00;99.90
23550;DHT22;11953;49.010;8.608;2023-05-09T02:41:35;15.10;99.90
23550;DHT22;11953;49.010;8.608;2023-05-09T02:44:22;15.10;99.90
23550;DHT22;11953;49.010;8.608;2023-05-09T02:47:08;15.10;99.90
23550;DHT22;11953;49.010;8.608;2023-05-09T02:49:55;15.00;99.90
23550;DHT22;11953;49.010;8.608;2023-05-09T02:52:42;14.70;99.90
23550;DHT22;11953;49.010;8.608;2023-05-09T02:55:30;14.70;99.90
23550;DHT22;11953;49.010;8.608;2023-05-09T02:58:17;14.70;99.90
23550;DHT22;11953;49.010;8.608;2023-05-09T03:01:04;14.40;99.90
23550;DHT22;11953;49.010;8.608;2023-05-09T03:03:50;14.60;99.90
23550;DHT22;11953;49.010;8.608;2023-05-09T03:06:38;14.60;99.90
23550;DHT22;11953;49.010;8.608;2023-05-09T03:09:25;14.70;99.90
23550;DHT22;11953;49.010;8.608;2023-05-09T03:12:13;14.70;99.90
23550;DHT22;11953;49.010;8.608;2023-05-09T03:14:59;14.70;99.90
23550;DHT22;11953;49.010;8.608;2023-05-09T03:17:47;14.70;99.90
23550;DHT22;11953;49.010;8.608;2023-05-09T03:20:34;14.70;99.90
23550;DHT22;11953;49.010;8.608;2023-05-09T03:23:21;14.70;99.90
23550;DHT22;11953;49.010;8.608;2023-05-09T03:26:08;14.50;99.90
23550;DHT22;11953;49.010;8.608;2023-05-09T03:28:56;14.60;99.90
23550;DHT22;11953;49.010;8.608;2023-05-09T03:31:43;14.60;99.90
23550;DHT22;11953;49.010;8.608;2023-05-09T03:34:30;14.60;99.90
23550;DHT22;11953;49.010;8.608;2023-05-09T03:37:18;14.70;99.90
23550;DHT22;11953;49.010;8.608;2023-05-09T03:40:06;14.80;99.90
23550;DHT22;11953;49.010;8.608;2023-05-09T03:43:00;14.80;99.90
23550;DHT22;11953;49.010;8.608;2023-05-09T03:45:48;14.90;99.90
23550;DHT22;11953;49.010;8.608;2023-05-09T03:48:34;15.00;99.90
23550;DHT22;11953;49.010;8.608;2023-05-09T03:51:22;14.80;99.90
23550;DHT22;11953;49.010;8.608;2023-05-09T03:54:10;14.70;99.90
23550;DHT22;11953;49.010;8.608;2023-05-09T03:56:57;14.50;99.90
23550;DHT22;11953;49.010;8.608;2023-05-09T03:59:45;14.30;99.90
23550;DHT22;11953;49.010;8.608;2023-05-09T04:02:34;14.30;99.90
23550;DHT22;11953;49.010;8.608;2023-05-09T04:05:22;14.20;99.90
23550;DHT22;11953;49.010;8.608;2023-05-09T04:08:09;14.20;99.90
23550;DHT22;11953;49.010;8.608;2023-05-09T04:10:56;14.10;99.90
23550;DHT22;11953;49.010;8.608;2023-05-09T04:13:43;14.00;99.90
23550;DHT22;11953;49.010;8.608;2023-05-09T04:16:50;14.10;99.90
23550;DHT22;11953;49.010;8.608;2023-05-09T04:19:39;14.30;99.90
23550;DHT22;11953;49.010;8.608;2023-05-09T04:22:27;14.20;99.90
23550;DHT22;11953;49.010;8.608;2023-05-09T04:25:14;14.20;99.90
23550;DHT22;11953;49.010;8.608;2023-05-09T04:28:03;14.30;99.90
23550;DHT22;11953;49.010;8.608;2023-05-09T04:30:50;14.40;99.90
23550;DHT22;11953;49.010;8.608;2023-05-09T04:33:38;14.50;99.90
23550;DHT22;11953;49.010;8.608;2023-05-09T04:36:26;14.60;99.90
23550;DHT22;11953;49.010;8.608;2023-05-09T04:39:16;14.70;99.90
23550;DHT22;11953;49.010;8.608;2023-05-09T04:42:13;14.90;99.90
23550;DHT22;11953;49.010;8.608;2023-05-09T04:45:00;14.90;99.90
23550;DHT22;11953;49.010;8.608;2023-05-09T04:47:47;15.00;99.90
23550;DHT22;11953;49.010;8.608;2023-05-09T04:50:34;15.10;99.90
23550;DHT22;11953;49.010;8.608;2023-05-09T04:53:22;15.10;99.90
23550;DHT22;11953;49.010;8.608;2023-05-09T04:56:09;15.10;99.90
23550;DHT22;11953;49.010;8.608;2023-05-09T04:58:56;15.20;99.90
23550;DHT22;11953;49.010;8.608;2023-05-09T05:01:43;15.30;99.90
23550;DHT22;11953;49.010;8.608;2023-05-09T05:04:31;15.30;99.90
23550;DHT22;11953;49.010;8.608;2023-05-09T05:07:19;15.30;99.90
23550;DHT22;11953;49.010;8.608;2023-05-09T05:10:07;15.20;99.90
23550;DHT22;11953;49.010;8.608;2023-05-09T05:12:56;15.20;99.90
23550;DHT22;11953;49.010;8.608;2023-05-09T05:15:43;15.10;99.90
23550;DHT22;11953;49.010;8.608;2023-05-09T05:18:31;15.10;99.90
23550;DHT22;11953;49.010;8.608;2023-05-09T05:21:18;15.00;99.90
23550;DHT22;11953;49.010;8.608;2023-05-09T05:24:06;14.80;99.90
23550;DHT22;11953;49.010;8.608;2023-05-09T05:26:54;14.80;99.90
23550;DHT22;11953;49.010;8.608;2023-05-09T05:29:42;14.80;99.90
23550;DHT22;11953;49.010;8.608;2023-05-09T05:32:29;14.80;99.90
23550;DHT22;11953;49.010;8.608;2023-05-09T05:35:17;14.90;99.90
23550;DHT22;11953;49.010;8.608;2023-05-09T05:38:04;15.00;99.90
23550;DHT22;11953;49.010;8.608;2023-05-09T05:40:50;15.10;99.90
23550;DHT22;11953;49.010;8.608;2023-05-09T05:43:40;15.20;99.90
23550;DHT22;11953;49.010;8.608;2023-05-09T05:46:27;15.50;99.90
23550;DHT22;11953;49.010;8.608;2023-05-09T05:49:13;15.70;99.90
23550;DHT22;11953;49.010;8.608;2023-05-09T05:52:01;16.00;99.90
23550;DHT22;11953;49.010;8.608;2023-05-09T05:54:48;16.30;99.90
23550;DHT22;11953;49.010;8.608;2023-05-09T05:57:35;16.50;99.90
23550;DHT22;11953;49.010;8.608;2023-05-09T06:00:25;16.70;99.90
23550;DHT22;11953;49.010;8.608;2023-05-09T06:03:18;16.80;99.90
23550;DHT22;11953;49.010;8.608;2023-05-09T06:06:18;16.80;99.90
23550;DHT22;11953;49.010;8.608;2023-05-09T06:09:05;16.90;99.90
23550;DHT22;11953;49.010;8.608;2023-05-09T06:11:53;17.00;99.90
23550;DHT22;11953;49.010;8.608;2023-05-09T06:14:39;17.20;99.90
23550;DHT22;11953;49.010;8.608;2023-05-09T06:17:28;17.20;99.90
23550;DHT22;11953;49.010;8.608;2023-05-09T06:20:15;17.30;99.90
23550;DHT22;11953;49.010;8.608;2023-05-09T06:23:02;17.40;99.90
23550;DHT22;11953;49.010;8.608;2023-05-09T06:25:48;17.50;99.90
23550;DHT22;11953;49.010;8.608;2023-05-09T06:28:35;17.50;99.90
23550;DHT22;11953;49.010;8.608;2023-05-09T06:31:21;17.50;99.90
23550;DHT22;11953;49.010;8.608;2023-05-09T06:34:11;17.30;99.90
23550;DHT22;11953;49.010;8.608;2023-05-09T06:36:58;17.30;99.90
23550;DHT22;11953;49.010;8.608;2023-05-09T06:39:45;17.30;99.90
23550;DHT22;11953;49.010;8.608;2023-05-09T06:42:32;17.40;99.90
23550;DHT22;11953;49.010;8.608;2023-05-09T06:45:18;17.30;99.90
23550;DHT22;11953;49.010;8.608;2023-05-09T06:48:05;17.40;99.90
23550;DHT22;11953;49.010;8.608;2023-05-09T06:50:54;17.50;99.90
23550;DHT22;11953;49.010;8.608;2023-05-09T06:53:40;17.50;99.90
23550;DHT22;11953;49.010;8.608;2023-05-09T06:56:27;17.50;99.90
23550;DHT22;11953;49.010;8.608;2023-05-09T06:59:14;17.70;99.90
23550;DHT22;11953;49.010;8.608;2023-05-09T07:02:00;17.70;99.90
23550;DHT22;11953;49.010;8.608;2023-05-09T07:04:47;17.80;99.90
23550;DHT22;11953;49.010;8.608;2023-05-09T07:07:36;17.80;99.90
23550;DHT22;11953;49.010;8.608;2023-05-09T07:10:22;17.90;99.90
23550;DHT22;11953;49.010;8.608;2023-05-09T07:13:09;17.90;99.90
23550;DHT22;11953;49.010;8.608;2023-05-09T07:15:56;18.00;99.90
23550;DHT22;11953;49.010;8.608;2023-05-09T07:18:42;18.00;99.90
23550;DHT22;11953;49.010;8.608;2023-05-09T07:21:29;17.90;99.90
23550;DHT22;11953;49.010;8.608;2023-05-09T07:24:19;18.00;99.90
23550;DHT22;11953;49.010;8.608;2023-05-09T07:27:05;18.10;99.90
23550;DHT22;11953;49.010;8.608;2023-05-09T07:29:52;18.20;99.90
23550;DHT22;11953;49.010;8.608;2023-05-09T07:32:39;18.20;99.90
23550;DHT22;11953;49.010;8.608;2023-05-09T07:35:25;18.20;99.90
23550;DHT22;11953;49.010;8.608;2023-05-09T07:38:12;18.20;99.90
23550;DHT22;11953;49.010;8.608;2023-05-09T07:41:00;18.10;99.90
23550;DHT22;11953;49.010;8.608;2023-05-09T07:43:47;18.10;99.90
23550;DHT22;11953;49.010;8.608;2023-05-09T07:46:33;18.00;99.90
23550;DHT22;11953;49.010;8.608;2023-05-09T07:49:21;18.10;99.90
23550;DHT22;11953;49.010;8.608;2023-05-09T07:52:08;18.10;99.90
23550;DHT22;11953;49.010;8.608;2023-05-09T07:54:55;18.20;99.90
23550;DHT22;11953;49.010;8.608;2023-05-09T07:57:42;18.20;99.90
23550;DHT22;11953;49.010;8.608;2023-05-09T08:00:29;18.10;99.90
23550;DHT22;11953;49.010;8.608;2023-05-09T08:03:16;18.00;99.90
23550;DHT22;11953;49.010;8.608;2023-05-09T08:06:05;17.90;99.90
23550;DHT22;11953;49.010;8.608;2023-05-09T08:08:51;18.10;99.90
23550;DHT22;11953;49.010;8.608;2023-05-09T08:11:38;18.20;99.90
23550;DHT22;11953;49.010;8.608;2023-05-09T08:14:26;18.30;99.90
23550;DHT22;11953;49.010;8.608;2023-05-09T08:17:12;18.60;99.90
23550;DHT22;11953;49.010;8.608;2023-05-09T08:19:59;19.30;99.90
23550;DHT22;11953;49.010;8.608;2023-05-09T08:22:46;20.20;99.90
23550;DHT22;11953;49.010;8.608;2023-05-09T08:25:33;21.10;99.90
23550;DHT22;11953;49.010;8.608;2023-05-09T08:28:20;22.30;99.90
23550;DHT22;11953;49.010;8.608;2023-05-09T08:31:09;22.70;99.90
23550;DHT22;11953;49.010;8.608;2023-05-09T08:33:56;22.40;99.90
23550;DHT22;11953;49.010;8.608;2023-05-09T08:36:43;21.80;99.90
23550;DHT22;11953;49.010;8.608;2023-05-09T08:39:31;20.50;99.90
23550;DHT22;11953;49.010;8.608;2023-05-09T08:42:21;20.40;99.90
23550;DHT22;11953;49.010;8.608;2023-05-09T08:45:12;20.30;99.90
23550;DHT22;11953;49.010;8.608;2023-05-09T08:48:02;20.20;99.90
23550;DHT22;11953;49.010;8.608;2023-05-09T08:50:51;19.60;99.90
23550;DHT22;11953;49.010;8.608;2023-05-09T08:53:38;19.50;99.90
23550;DHT22;11953;49.010;8.608;2023-05-09T08:56:25;19.80;99.90
23550;DHT22;11953;49.010;8.608;2023-05-09T08:59:12;20.20;99.90
23550;DHT22;11953;49.010;8.608;2023-05-09T09:01:59;20.50;99.90
23550;DHT22;11953;49.010;8.608;2023-05-09T09:04:48;20.50;99.90
23550;DHT22;11953;49.010;8.608;2023-05-09T09:07:35;20.50;99.90
23550;DHT22;11953;49.010;8.608;2023-05-09T09:10:25;20.70;99.90
23550;DHT22;11953;49.010;8.608;2023-05-09T09:13:16;21.00;99.90
23550;DHT22;11953;49.010;8.608;2023-05-09T09:16:03;21.20;99.90
23550;DHT22;11953;49.010;8.608;2023-05-09T09:18:51;21.30;99.90
23550;DHT22;11953;49.010;8.608;2023-05-09T09:21:45;21.10;99.90
23550;DHT22;11953;49.010;8.608;2023-05-09T09:24:33;20.80;99.90
23550;DHT22;11953;49.010;8.608;2023-05-09T09:27:20;20.60;99.90
23550;DHT22;11953;49.010;8.608;2023-05-09T09:30:07;20.40;99.90
23550;DHT22;11953;49.010;8.608;2023-05-09T09:32:55;20.30;99.90
23550;DHT22;11953;49.010;8.608;2023-05-09T09:35:44;20.20;99.90
23550;DHT22;11953;49.010;8.608;2023-05-09T09:38:38;20.10;99.90
23550;DHT22;11953;49.010;8.608;2023-05-09T09:41:32;19.90;99.90
23550;DHT22;11953;49.010;8.608;2023-05-09T09:44:20;19.80;99.90
23550;DHT22;11953;49.010;8.608;2023-05-09T09:47:09;19.80;99.90
23550;DHT22;11953;49.010;8.608;2023-05-09T09:49:56;19.70;99.90
23550;DHT22;11953;49.010;8.608;2023-05-09T09:52:44;19.70;99.90
23550;DHT22;11953;49.010;8.608;2023-05-09T09:55:35;19.70;99.90
23550;DHT22;11953;49.010;8.608;2023-05-09T09:58:22;19.70;99.90
23550;DHT22;11953;49.010;8.608;2023-05-09T10:01:11;19.70;99.90
23550;DHT22;11953;49.010;8.608;2023-05-09T10:04:02;19.60;99.90
23550;DHT22;11953;49.010;8.608;2023-05-09T10:06:53;19.60;99.90
23550;DHT22;11953;49.010;8.608;2023-05-09T10:09:39;19.60;99.90
23550;DHT22;11953;49.010;8.608;2023-05-09T10:12:29;19.70;99.90
23550;DHT22;11953;49.010;8.608;2023-05-09T10:15:19;19.80;99.90
23550;DHT22;11953;49.010;8.608;2023-05-09T10:18:07;19.80;99.90
23550;DHT22;11953;49.010;8.608;2023-05-09T10:20:57;20.00;99.90
23550;DHT22;11953;49.010;8.608;2023-05-09T10:23:47;20.10;99.90
23550;DHT22;11953;49.010;8.608;2023-05-09T10:26:39;20.00;99.90
23550;DHT22;11953;49.010;8.608;2023-05-09T10:29:35;20.00;99.90
23550;DHT22;11953;49.010;8.608;2023-05-09T10:32:26;19.90;99.90
23550;DHT22;11953;49.010;8.608;2023-05-09T10:35:13;19.80;99.90
23550;DHT22;11953;49.010;8.608;2023-05-09T10:38:02;19.80;99.90
23550;DHT22;11953;49.010;8.608;2023-05-09T10:40:49;19.80;99.90
23550;DHT22;11953;49.010;8.608;2023-05-09T10:43:36;19.70;99.90
23550;DHT22;11953;49.010;8.608;2023-05-09T10:46:25;19.70;99.90
23550;DHT22;11953;49.010;8.608;2023-05-09T10:49:13;19.50;99.90
23550;DHT22;11953;49.010;8.608;2023-05-09T10:52:00;19.20;99.90
23550;DHT22;11953;49.010;8.608;2023-05-09T10:54:57;19.10;99.90
23550;DHT22;11953;49.010;8.608;2023-05-09T10:57:52;19.00;99.90
23550;DHT22;11953;49.010;8.608;2023-05-09T11:00:40;19.00;99.90
23550;DHT22;11953;49.010;8.608;2023-05-09T11:03:51;18.80;99.90
23550;DHT22;11953;49.010;8.608;2023-05-09T11:06:46;18.50;99.90
23550;DHT22;11953;49.010;8.608;2023-05-09T11:09:36;18.50;99.90
23550;DHT22;11953;49.010;8.608;2023-05-09T11:12:25;18.70;99.90
23550;DHT22;11953;49.010;8.608;2023-05-09T11:15:12;18.90;99.90
23550;DHT22;11953;49.010;8.608;2023-05-09T11:18:06;19.20;99.90
23550;DHT22;11953;49.010;8.608;2023-05-09T11:20:54;19.60;99.90
23550;DHT22;11953;49.010;8.608;2023-05-09T11:23:41;19.90;99.90
23550;DHT22;11953;49.010;8.608;2023-05-09T11:26:28;20.20;99.90
23550;DHT22;11953;49.010;8.608;2023-05-09T11:29:16;20.40;99.90
23550;DHT22;11953;49.010;8.608;2023-05-09T11:32:06;20.40;99.90
23550;DHT22;11953;49.010;8.608;2023-05-09T11:35:05;20.70;99.90
23550;DHT22;11953;49.010;8.608;2023-05-09T11:37:59;20.80;99.90
23550;DHT22;11953;49.010;8.608;2023-05-09T11:40:46;21.20;99.90
23550;DHT22;11953;49.010;8.608;2023-05-09T11:43:34;21.40;99.90
23550;DHT22;11953;49.010;8.608;2023-05-09T11:46:21;21.60;99.90
23550;DHT22;11953;49.010;8.608;2023-05-09T11:49:09;21.70;99.90
23550;DHT22;11953;49.010;8.608;2023-05-09T11:51:58;21.60;99.90
23550;DHT22;11953;49.010;8.608;2023-05-09T11:54:46;21.70;99.90
23550;DHT22;11953;49.010;8.608;2023-05-09T11:57:34;21.80;99.90
23550;DHT22;11953;49.010;8.608;2023-05-09T12:00:22;21.80;99.90
23550;DHT22;11953;49.010;8.608;2023-05-09T12:03:09;21.80;99.90
23550;DHT22;11953;49.010;8.608;2023-05-09T12:05:57;21.80;99.90
23550;DHT22;11953;49.010;8.608;2023-05-09T12:08:44;22.00;99.90
23550;DHT22;11953;49.010;8.608;2023-05-09T12:11:33;22.20;99.90
23550;DHT22;11953;49.010;8.608;2023-05-09T12:14:28;22.10;99.90
23550;DHT22;11953;49.010;8.608;2023-05-09T12:17:15;22.20;99.90
23550;DHT22;11953;49.010;8.608;2023-05-09T12:20:01;22.20;99.90
23550;DHT22;11953;49.010;8.608;2023-05-09T12:22:52;22.10;99.90
23550;DHT22;11953;49.010;8.608;2023-05-09T12:25:39;22.10;99.90
23550;DHT22;11953;49.010;8.608;2023-05-09T12:28:27;22.20;99.90
23550;DHT22;11953;49.010;8.608;2023-05-09T12:31:15;22.20;99.90
23550;DHT22;11953;49.010;8.608;2023-05-09T12:34:03;22.10;99.90
23550;DHT22;11953;49.010;8.608;2023-05-09T12:36:50;22.20;99.90
23550;DHT22;11953;49.010;8.608;2023-05-09T12:39:37;22.40;99.90
23550;DHT22;11953;49.010;8.608;2023-05-09T12:42:26;22.40;99.90
23550;DHT22;11953;49.010;8.608;2023-05-09T12:45:14;22.40;99.90
23550;DHT22;11953;49.010;8.608;2023-05-09T12:48:01;22.20;99.90
23550;DHT22;11953;49.010;8.608;2023-05-09T12:50:50;22.10;99.90
23550;DHT22;11953;49.010;8.608;2023-05-09T12:53:38;22.10;99.90
23550;DHT22;11953;49.010;8.608;2023-05-09T12:56:25;22.00;99.90
23550;DHT22;11953;49.010;8.608;2023-05-09T12:59:12;21.90;99.90
23550;DHT22;11953;49.010;8.608;2023-05-09T13:02:00;21.70;99.90
23550;DHT22;11953;49.010;8.608;2023-05-09T13:04:47;21.90;99.90
23550;DHT22;11953;49.010;8.608;2023-05-09T13:07:38;21.90;99.90
23550;DHT22;11953;49.010;8.608;2023-05-09T13:10:26;21.90;99.90
23550;DHT22;11953;49.010;8.608;2023-05-09T13:13:14;21.60;99.90
23550;DHT22;11953;49.010;8.608;2023-05-09T13:16:02;21.50;99.90
23550;DHT22;11953;49.010;8.608;2023-05-09T13:18:52;21.70;99.90
23550;DHT22;11953;49.010;8.608;2023-05-09T13:21:39;21.80;99.90
23550;DHT22;11953;49.010;8.608;2023-05-09T13:24:26;21.80;99.90
23550;DHT22;11953;49.010;8.608;2023-05-09T13:27:13;21.80;99.90
23550;DHT22;11953;49.010;8.608;2023-05-09T13:30:00;21.70;99.90
23550;DHT22;11953;49.010;8.608;2023-05-09T13:32:48;21.70;99.90
23550;DHT22;11953;49.010;8.608;2023-05-09T13:35:37;21.70;99.90
23550;DHT22;11953;49.010;8.608;2023-05-09T13:38:24;21.60;99.90
23550;DHT22;11953;49.010;8.608;2023-05-09T13:41:11;21.30;99.90
23550;DHT22;11953;49.010;8.608;2023-05-09T13:44:04;21.30;99.90
23550;DHT22;11953;49.010;8.608;2023-05-09T13:46:51;21.10;99.90
23550;DHT22;11953;49.010;8.608;2023-05-09T13:49:37;21.10;99.90
23550;DHT22;11953;49.010;8.608;2023-05-09T13:52:25;20.90;99.90
23550;DHT22;11953;49.010;8.608;2023-05-09T13:55:12;20.70;99.90
23550;DHT22;11953;49.010;8.608;2023-05-09T13:57:59;20.50;99.90
23550;DHT22;11953;49.010;8.608;2023-05-09T14:00:46;20.30;99.90
23550;DHT22;11953;49.010;8.608;2023-05-09T14:03:32;20.10;99.90
23550;DHT22;11953;49.010;8.608;2023-05-09T14:06:19;20.10;99.90
23550;DHT22;11953;49.010;8.608;2023-05-09T14:09:07;20.20;99.90
23550;DHT22;11953;49.010;8.608;2023-05-09T14:11:55;20.10;99.90
23550;DHT22;11953;49.010;8.608;2023-05-09T14:14:42;20.00;99.90
23550;DHT22;11953;49.010;8.608;2023-05-09T14:17:28;20.00;99.90
23550;DHT22;11953;49.010;8.608;2023-05-09T14:20:15;19.80;99.90
23550;DHT22;11953;49.010;8.608;2023-05-09T14:23:02;20.00;99.90
23550;DHT22;11953;49.010;8.608;2023-05-09T14:25:50;20.00;99.90
23550;DHT22;11953;49.010;8.608;2023-05-09T14:28:37;20.10;99.90
23550;DHT22;11953;49.010;8.608;2023-05-09T14:31:23;20.10;99.90
23550;DHT22;11953;49.010;8.608;2023-05-09T14:34:10;20.20;99.90
23550;DHT22;11953;49.010;8.608;2023-05-09T14:36:56;20.30;99.90
23550;DHT22;11953;49.010;8.608;2023-05-09T14:39:43;20.30;99.90
23550;DHT22;11953;49.010;8.608;2023-05-09T14:42:32;20.20;99.90
23550;DHT22;11953;49.010;8.608;2023-05-09T14:45:20;20.40;99.90
23550;DHT22;11953;49.010;8.608;2023-05-09T14:48:06;20.30;99.90
23550;DHT22;11953;49.010;8.608;2023-05-09T14:50:53;20.30;99.90
23550;DHT22;11953;49.010;8.608;2023-05-09T14:53:41;20.10;99.90
23550;DHT22;11953;49.010;8.608;2023-05-09T14:56:28;20.00;99.90
23550;DHT22;11953;49.010;8.608;2023-05-09T14:59:16;20.00;99.90
23550;DHT22;11953;49.010;8.608;2023-05-09T15:02:02;20.10;99.90
23550;DHT22;11953;49.010;8.608;2023-05-09T15:04:49;20.10;99.90
23550;DHT22;11953;49.010;8.608;2023-05-09T15:07:37;20.00;99.90
23550;DHT22;11953;49.010;8.608;2023-05-09T15:10:23;19.80;99.90
23550;DHT22;11953;49.010;8.608;2023-05-09T15:13:11;19.70;99.90
23550;DHT22;11953;49.010;8.608;2023-05-09T15:16:00;19.80;99.90
23550;DHT22;11953;49.010;8.608;2023-05-09T15:18:47;19.90;99.90
23550;DHT22;11953;49.010;8.608;2023-05-09T15:21:33;20.00;99.90
23550;DHT22;11953;49.010;8.608;2023-05-09T15:24:21;20.00;99.90
23550;DHT22;11953;49.010;8.608;2023-05-09T15:27:07;19.70;99.90
23550;DHT22;11953;49.010;8.608;2023-05-09T15:29:54;19.50;99.90
23550;DHT22;11953;49.010;8.608;2023-05-09T15:32:42;19.60;99.90
23550;DHT22;11953;49.010;8.608;2023-05-09T15:35:29;19.60;99.90
23550;DHT22;11953;49.010;8.608;2023-05-09T15:38:16;19.70;99.90
23550;DHT22;11953;49.010;8.608;2023-05-09T15:41:03;19.80;99.90
23550;DHT22;11953;49.010;8.608;2023-05-09T15:43:50;19.70;99.90
23550;DHT22;11953;49.010;8.608;2023-05-09T15:46:39;19.90;99.90
23550;DHT22;11953;49.010;8.608;2023-05-09T15:49:27;19.90;99.90
23550;DHT22;11953;49.010;8.608;2023-05-09T15:52:14;19.80;99.90
23550;DHT22;11953;49.010;8.608;2023-05-09T15:55:00;19.80;99.90
23550;DHT22;11953;49.010;8.608;2023-05-09T15:57:47;19.80;99.90
23550;DHT22;11953;49.010;8.608;2023-05-09T16:00:35;19.80;99.90
23550;DHT22;11953;49.010;8.608;2023-05-09T16:03:22;19.80;99.90
23550;DHT22;11953;49.010;8.608;2023-05-09T16:06:11;19.70;99.90
23550;DHT22;11953;49.010;8.608;2023-05-09T16:08:58;19.60;99.90
23550;DHT22;11953;49.010;8.608;2023-05-09T16:11:46;19.50;99.90
23550;DHT22;11953;49.010;8.608;2023-05-09T16:14:33;19.50;99.90
23550;DHT22;11953;49.010;8.608;2023-05-09T16:17:20;19.50;99.90
23550;DHT22;11953;49.010;8.608;2023-05-09T16:20:07;19.60;99.90
23550;DHT22;11953;49.010;8.608;2023-05-09T16:22:59;19.60;99.90
23550;DHT22;11953;49.010;8.608;2023-05-09T16:25:46;19.60;99.90
23550;DHT22;11953;49.010;8.608;2023-05-09T16:28:34;19.50;99.90
23550;DHT22;11953;49.010;8.608;2023-05-09T16:31:21;19.50;99.90
23550;DHT22;11953;49.010;8.608;2023-05-09T16:34:11;19.50;99.90
23550;DHT22;11953;49.010;8.608;2023-05-09T16:36:58;19.50;99.90
23550;DHT22;11953;49.010;8.608;2023-05-09T16:39:46;19.30;99.90
23550;DHT22;11953;49.010;8.608;2023-05-09T16:42:33;19.30;99.90
23550;DHT22;11953;49.010;8.608;2023-05-09T16:45:20;19.20;99.90
23550;DHT22;11953;49.010;8.608;2023-05-09T16:48:06;19.10;99.90
23550;DHT22;11953;49.010;8.608;2023-05-09T16:50:53;19.20;99.90
23550;DHT22;11953;49.010;8.608;2023-05-09T16:53:40;19.20;99.90
23550;DHT22;11953;49.010;8.608;2023-05-09T16:56:29;19.20;99.90
23550;DHT22;11953;49.010;8.608;2023-05-09T16:59:15;19.10;99.90
23550;DHT22;11953;49.010;8.608;2023-05-09T17:02:04;19.10;99.90
23550;DHT22;11953;49.010;8.608;2023-05-09T17:04:50;19.00;99.90
23550;DHT22;11953;49.010;8.608;2023-05-09T17:07:37;18.70;99.90
23550;DHT22;11953;49.010;8.608;2023-05-09T17:10:24;18.60;99.90
23550;DHT22;11953;49.010;8.608;2023-05-09T17:13:11;18.60;99.90
23550;DHT22;11953;49.010;8.608;2023-05-09T17:15:58;18.40;99.90
23550;DHT22;11953;49.010;8.608;2023-05-09T17:18:45;18.40;99.90
23550;DHT22;11953;49.010;8.608;2023-05-09T17:21:31;18.40;99.90
23550;DHT22;11953;49.010;8.608;2023-05-09T17:24:18;18.50;99.90
23550;DHT22;11953;49.010;8.608;2023-05-09T17:27:04;18.70;99.90
23550;DHT22;11953;49.010;8.608;2023-05-09T17:29:52;18.70;99.90
23550;DHT22;11953;49.010;8.608;2023-05-09T17:32:38;18.80;99.90
23550;DHT22;11953;49.010;8.608;2023-05-09T17:35:26;18.70;99.90
23550;DHT22;11953;49.010;8.608;2023-05-09T17:38:14;18.50;99.90
23550;DHT22;11953;49.010;8.608;2023-05-09T17:41:01;18.50;99.90